• Join FlightAware (Why Join?)
  • Login
  • US Flag 
04:26AM EST


 

Airport Tracker/Info


-or-


 

Live Flight TrackerFlight Track Log ✈ UAL3835 ✈ 04-May-2013 ✈ CYHZ - KEWR

Flight Track Log - Related Links

Times and Time Zones

All times are in EDT time to prevent confusion due to time zone crossing. See the UAL3835 flight status page for this flight to view local times or setup timezone preferences in your user account.

Time Position Orientation Groundspeed Altitude Reporting Facility
EDT Latitude Longitude Course Direction KTS MPH feet Rate Location/Type
11:19AM 44.9167 -63.5000 10° North 200 230 3,300  Level Moncton Center
11:20AM 44.9000 -63.5667 251° West 240 276 5,300 1,800 Climbing Moncton Center
11:21AM 44.8833 -63.6667 257° West 280 322 6,900 1,920 Climbing Moncton Center
11:22AM 44.8500 -63.7833 248° West 290 334 9,200 1,860 Climbing Moncton Center
11:23AM 44.8167 -63.8833 245° Southwest 300 345 10,700 1,380 Climbing Moncton Center
11:24AM 44.8000 -64.0167 260° West 330 380 12,000 1,320 Climbing Moncton Center
11:25AM 44.7833 -64.1667 261° West 350 403 13,400 1,740 Climbing Moncton Center
11:26AM 44.7667 -64.3000 260° West 350 403 15,500 2,100 Climbing Moncton Center
11:27AM 44.7500 -64.4167 259° West 340 391 17,600 1,680 Climbing Moncton Center
11:28AM 44.7333 -64.5667 261° West 340 391 18,900 1,380 Climbing Moncton Center
11:29AM 44.7167 -64.6833 259° West 340 391 20,400 1,500 Climbing Moncton Center
11:30AM 44.7000 -64.8167 260° West 340 391 22,000 1,500 Climbing Moncton Center
11:31AM 44.6833 -64.9333 259° West 340 391 23,500 1,500 Climbing Moncton Center
11:32AM 44.6667 -65.0833 261° West 340 391 25,100 1,320 Climbing Moncton Center
11:33AM 44.6500 -65.2167 260° West 350 403 26,200 960 Climbing Moncton Center
11:34AM 44.6333 -65.3667 261° West 360 414 27,100 900 Climbing Moncton Center
11:35AM 44.6167 -65.4833 259° West 360 414 28,000 960 Climbing Moncton Center
11:36AM 44.6000 -65.6333 261° West 370 426 29,100 960 Climbing Moncton Center
11:37AM 44.5833 -65.7833 261° West 370 426 30,000 900 Climbing Moncton Center
11:38AM 44.5667 -65.9167 260° West 380 437 31,000 900 Climbing Moncton Center
11:39AM 44.5500 -66.0667 261° West 380 437 31,900 900 Climbing Moncton Center
11:40AM 44.5167 -66.2333 254° West 390 449 32,900 960 Climbing Moncton Center
11:41AM 44.4833 -66.3667 251° West 390 449 33,900 960 Climbing Moncton Center
11:42AM 44.4667 -66.5333 262° West 390 449 34,900 780 Climbing Moncton Center
11:43AM 44.4500 -66.6667 260° West 390 449 35,500 480 Climbing Moncton Center
11:44AM 44.4333 -66.8167 261° West 400 460 35,900 240 Climbing Moncton Center
11:45AM 44.4000 -66.9667 253° West 410 472 36,000  Climbing Moncton Center
11:47AM 44.3853 -67.1894 265° West 417 480 36,000  Level Boston Center
11:48AM 44.3597 -67.3603 258° West 439 505 36,000  Level Boston Center
11:48AM 44.3333 -67.4833 253° West 450 518 36,000  Level Moncton Center
11:49AM 44.3319 -67.5369 268° West 454 522 36,000  Level Boston Center
11:50AM 44.3108 -67.6781 258° West 459 528 36,000  Level Boston Center
11:51AM 44.2775 -67.8897 258° West 464 534 36,000  Level Boston Center
11:52AM 44.2492 -68.0689 258° West 464 534 36,000  Level Boston Center
11:53AM 44.2183 -68.2508 257° West 478 550 36,000  Level Boston Center
11:54AM 44.1892 -68.4294 257° West 478 550 36,000  Level Boston Center
11:55AM 44.1600 -68.6111 257° West 478 550 36,000  Level Boston Center
11:56AM 44.1306 -68.7922 257° West 473 544 36,000  Level Boston Center
11:57AM 44.1006 -68.9647 256° West 473 544 36,000  Level Boston Center
11:58AM 44.0703 -69.1400 257° West 473 544 36,000  Level Boston Center
11:59AM 44.0417 -69.3178 257° West 473 544 36,000  Level Boston Center
12:00PM 44.0089 -69.4928 255° West 473 544 36,000  Level Boston Center
12:01PM 43.9758 -69.6703 256° West 473 544 36,000  Level Boston Center
12:02PM 43.9447 -69.8506 257° West 473 544 36,000  Level Boston Center
12:03PM 43.9092 -70.0425 256° West 473 544 36,000  Level Boston Center
12:04PM 43.8772 -70.2194 256° West 473 544 36,000  Level Boston Center
12:05PM 43.8472 -70.3903 256° West 473 544 36,000  Level Boston Center
12:06PM 43.8125 -70.5642 255° West 473 544 36,000  Level Boston Center
12:07PM 43.7819 -70.7378 256° West 473 544 36,000  Level Boston Center
12:08PM 43.7469 -70.9083 254° West 473 544 36,000  Level Boston Center
12:09PM 43.7136 -71.0786 255° West 473 544 36,000  Level Boston Center
12:10PM 43.6822 -71.2544 256° West 473 544 36,000  Level Boston Center
12:11PM 43.6544 -71.4042 256° West 468 539 36,000  Level Boston Center
12:12PM 43.6206 -71.5769 255° West 468 539 36,000  Level Boston Center
12:13PM 43.5883 -71.7464 255° West 468 539 36,000  Level Boston Center
12:14PM 43.5517 -71.9217 254° West 468 539 36,000  Level Boston Center
12:15PM 43.5189 -72.0936 255° West 473 544 36,000  Level Boston Center
12:16PM 43.4839 -72.2656 254° West 473 544 36,000  Level Boston Center
12:17PM 43.4486 -72.4344 254° West 468 539 36,000 -240 Level Boston Center
12:18PM 43.4131 -72.6058 254° West 468 539 35,600 -780 Descending Boston Center
12:19PM 43.3794 -72.7742 255° West 468 539 34,500 -1,500 Descending Boston Center
12:20PM 43.3414 -72.9511 254° West 473 544 32,600 -2,100 Descending Boston Center
12:21PM 43.3069 -73.1219 255° West 473 544 30,400 -2,520 Descending Boston Center
12:22PM 43.2706 -73.2928 254° West 473 544 27,600 -2,400 Descending Boston Center
12:23PM 43.2272 -73.4831 253° West 478 550 25,700 -2,340 Descending Boston Center
12:24PM 43.1467 -73.6267 232° Southwest 483 556 23,000 -2,400 Descending Boston Center
12:25PM 43.0208 -73.6867 199° South 454 522 21,000 -1,440 Descending Boston Center
12:26PM 42.9078 -73.7356 198° South 437 503 20,200 -840 Descending Boston Center
12:27PM 42.8197 -73.7761 199° South 409 471 19,400 -960 Descending Boston Center
12:28PM 42.7172 -73.8219 198° South 380 437 18,300 -900 Descending Boston Center
12:29PM 42.6250 -73.8622 198° South 359 413 17,600 -780 Descending Boston Center
12:30PM 42.5517 -73.8917 196° South 348 400 16,800 -840 Descending Boston Center
12:31PM 42.4467 -73.9397 199° South 338 389 16,000 -420 Descending Boston Center
12:32PM 42.3692 -73.9717 197° South 329 379 16,000  Level Boston Center
12:33PM 42.2728 -74.0169 199° South 322 371 16,000  Level Boston Center
12:34PM 42.1950 -74.0514 198° South 327 376 16,000  Level Boston Center
12:35PM 42.0986 -74.0936 198° South 327 376 16,100 -180 Climbing Boston Center
12:36PM 42.0106 -74.1306 197° South 327 376 15,700 -780 Descending Boston Center
12:37PM 41.9286 -74.1675 199° South 327 376 14,600 -1,080 Descending Boston Center
12:38PM 41.8469 -74.2042 198° South 327 376 13,600 -1,080 Descending Boston Center
12:39PM 41.7650 -74.2381 197° South 316 364 12,500 -960 Descending Boston Center
12:40PM 41.6853 -74.2747 199° South 306 352 11,700 -900 Descending Boston Center
12:41PM 41.6075 -74.3086 198° South 306 352 10,700 -1,020 Descending Boston Center
12:42PM 41.5361 -74.3369 197° South 306 352 9,700 -1,200 Descending Boston Center
12:43PM 41.4522 -74.3761 199° South 306 352 8,300 -900 Descending Boston Center
12:44PM 41.3333 -74.4167 194° South 286 329 7,500 -480 Descending New York TRACON
12:45PM 41.2667 -74.4167 180° South 269 310 7,100 -600 Descending New York TRACON
12:46PM 41.2000 -74.3500 143° Southeast 264 304 6,400 -960 Descending New York TRACON
12:47PM 41.1333 -74.3000 151° Southeast 265 305 5,200 -660 Descending New York TRACON
12:48PM 41.0833 -74.2500 143° Southeast 255 293 5,100 -420 Descending New York TRACON
12:49PM 41.0167 -74.2000 150° Southeast 261 300 4,400 -540 Descending New York TRACON
12:50PM 40.9500 -74.1500 150° Southeast 256 295 4,100 -240 Descending New York TRACON
12:51PM 40.9000 -74.1000 143° Southeast 244 281 4,000 -540 Descending New York TRACON
12:52PM 40.8500 -74.0667 153° Southeast 204 235 3,100 -840 Descending New York TRACON
12:53PM 40.8000 -74.1000 207° Southwest 197 227 2,400 -900 Descending New York TRACON
12:54PM 40.7500 -74.1333 207° Southwest 176 203 1,300 -960 Descending New York TRACON
12:55PM 40.7167 -74.1500 201° Southwest 132 152 500 -840 Descending New York TRACON
12:57PM 40.6925 -74.1687 210° Southwest  Level Estimated
01:04PM 40.6925 -74.1687 90° East  Level Estimated
01:05PM 40.6925 -74.1687 90° East  Level Estimated